createdAt,value
2023-02-11T00:00:50.879Z,-5.79
2023-02-11T00:06:00.637Z,-6.11
2023-02-11T00:11:05.464Z,-6.48
2023-02-11T00:16:16.530Z,-6.65
2023-02-11T00:21:23.304Z,-6.73
2023-02-11T00:26:31.126Z,-6.21
2023-02-11T00:31:36.835Z,-6.35
2023-02-11T00:36:43.034Z,-6.52
2023-02-11T00:41:47.323Z,-6.47
2023-02-11T00:46:53.553Z,-6.29
2023-02-11T00:52:00.571Z,-6.44
2023-02-11T00:57:04.703Z,-6.84
2023-02-11T01:02:10.200Z,-7.25
2023-02-11T01:07:14.316Z,-6.96
2023-02-11T01:12:18.340Z,-6.67
2023-02-11T01:17:24.355Z,-6.69
2023-02-11T01:22:28.631Z,-7.00
2023-02-11T01:27:32.721Z,-6.84
2023-02-11T01:32:38.215Z,-6.46
2023-02-11T01:37:42.981Z,-6.85
2023-02-11T01:42:48.874Z,-6.99
2023-02-11T01:47:58.774Z,-7.00
2023-02-11T01:53:24.255Z,-7.02
2023-02-11T01:58:30.320Z,-7.21
2023-02-11T02:03:39.087Z,-7.46
2023-02-11T02:08:48.344Z,-7.91
2023-02-11T02:13:52.431Z,-7.92
2023-02-11T02:19:16.227Z,-8.00
2023-02-11T02:24:56.727Z,-8.11
2023-02-11T02:30:25.582Z,-8.45
2023-02-11T02:35:41.768Z,-8.03
2023-02-11T02:40:52.069Z,-7.89
2023-02-11T02:45:56.391Z,-7.63
2023-02-11T02:51:14.189Z,-7.98
2023-02-11T02:56:27.519Z,-7.66
2023-02-11T03:01:41.119Z,-7.34
2023-02-11T03:06:53.988Z,-7.34
2023-02-11T03:11:58.195Z,-7.27
2023-02-11T03:17:06.231Z,-7.75
2023-02-11T03:22:18.426Z,-7.52
2023-02-11T03:27:27.025Z,-7.57
2023-02-11T03:32:37.589Z,-7.58
2023-02-11T03:37:50.348Z,-7.59
2023-02-11T03:43:00.922Z,-8.04
2023-02-11T03:48:13.742Z,-8.01
2023-02-11T03:53:21.950Z,-8.05
2023-02-11T03:58:26.287Z,-8.01
2023-02-11T04:03:30.575Z,-8.36
2023-02-11T04:08:35.945Z,-8.32
2023-02-11T04:13:40.180Z,-8.46
2023-02-11T04:18:44.301Z,-8.34
2023-02-11T04:23:50.089Z,-8.22
2023-02-11T04:28:54.068Z,-8.23
2023-02-11T04:33:58.242Z,-8.35
2023-02-11T04:39:04.498Z,-8.32
2023-02-11T04:44:09.086Z,-8.37
2023-02-11T04:49:14.745Z,-8.31
2023-02-11T04:54:20.092Z,-8.11
2023-02-11T04:59:24.177Z,-8.28
2023-02-11T05:04:30.817Z,-8.61
2023-02-11T05:09:36.468Z,-8.05
2023-02-11T05:14:41.675Z,-8.21
2023-02-11T05:19:45.746Z,-8.04
2023-02-11T05:24:51.106Z,-8.00
2023-02-11T05:29:55.125Z,-8.11
2023-02-11T05:34:59.214Z,-8.52
2023-02-11T05:40:06.579Z,-8.53
2023-02-11T05:45:11.096Z,-8.31
2023-02-11T05:50:15.317Z,-8.32
2023-02-11T05:55:20.840Z,-8.16
2023-02-11T06:00:25.321Z,-8.05
2023-02-11T06:05:29.380Z,-7.69
2023-02-11T06:10:34.898Z,-7.45
2023-02-11T06:15:41.312Z,-7.30
2023-02-11T06:20:45.921Z,-6.90
2023-02-11T06:25:51.683Z,-6.18
2023-02-11T06:30:55.937Z,-5.49
2023-02-11T06:35:59.970Z,-5.16
2023-02-11T06:41:07.318Z,-5.01
2023-02-11T06:46:11.483Z,-3.86
2023-02-11T06:51:17.243Z,-2.71
2023-02-11T06:56:24.847Z,-1.65
2023-02-11T07:01:29.807Z,-0.17
2023-02-11T07:06:34.010Z,0.38
2023-02-11T07:11:39.654Z,0.93
2023-02-11T07:16:44.936Z,1.44
2023-02-11T07:21:49.855Z,2.54
2023-02-11T07:26:56.043Z,3.17
2023-02-11T07:32:00.687Z,3.48
2023-02-11T07:37:04.767Z,3.58
2023-02-11T07:42:10.164Z,3.81
2023-02-11T07:47:14.142Z,2.87
2023-02-11T07:52:18.159Z,3.62
2023-02-11T07:57:23.464Z,4.64
2023-02-11T08:02:27.747Z,4.48
2023-02-11T08:07:32.564Z,4.85
2023-02-11T08:12:37.977Z,4.62
2023-02-11T08:17:43.103Z,5.95
2023-02-11T08:22:49.085Z,6.13
2023-02-11T08:27:57.167Z,6.23
2023-02-11T08:33:01.561Z,5.55
2023-02-11T08:38:05.572Z,6.37
2023-02-11T08:43:11.483Z,7.03
2023-02-11T08:48:16.482Z,7.63
2023-02-11T08:53:20.622Z,8.07
2023-02-11T08:58:26.334Z,7.56
2023-02-11T09:03:30.874Z,7.07
2023-02-11T09:08:36.751Z,7.43
2023-02-11T09:13:44.606Z,6.51
2023-02-11T09:18:49.385Z,7.50
2023-02-11T09:23:54.267Z,7.39
2023-02-11T09:29:00.293Z,7.26
2023-02-11T09:34:06.922Z,7.53
2023-02-11T09:39:14.161Z,8.12
2023-02-11T09:44:23.968Z,8.69
2023-02-11T09:49:36.215Z,9.04
2023-02-11T09:54:51.400Z,8.79
2023-02-11T09:59:57.384Z,9.48
2023-02-11T10:05:23.893Z,10.86
2023-02-11T10:10:42.203Z,11.09
2023-02-11T10:15:53.514Z,11.70
2023-02-11T10:21:09.420Z,12.57
2023-02-11T10:26:16.056Z,13.74
2023-02-11T10:31:26.125Z,13.15
2023-02-11T10:36:37.348Z,11.90
2023-02-11T10:41:45.866Z,11.76
2023-02-11T10:46:53.486Z,12.50
2023-02-11T10:52:15.187Z,11.08
2023-02-11T10:57:21.234Z,11.47
2023-02-11T11:02:32.278Z,11.54
2023-02-11T11:07:37.725Z,11.64
2023-02-11T11:12:49.796Z,11.19
2023-02-11T11:18:21.516Z,11.16
2023-02-11T11:23:27.512Z,11.41
2023-02-11T11:28:39.004Z,12.00
2023-02-11T11:33:45.760Z,11.20
2023-02-11T11:38:53.707Z,11.11
2023-02-11T11:44:04.780Z,11.28
2023-02-11T11:49:22.620Z,11.08
2023-02-11T11:54:29.387Z,11.15
2023-02-11T11:59:33.545Z,11.03
2023-02-11T12:05:00.129Z,11.22
2023-02-11T12:10:36.134Z,11.23
2023-02-11T12:15:51.072Z,12.08
2023-02-11T12:21:13.533Z,11.49
2023-02-11T12:26:21.688Z,10.85
2023-02-11T12:31:35.577Z,10.66
2023-02-11T12:36:58.059Z,10.85
2023-02-11T12:42:48.349Z,10.54
2023-02-11T12:48:06.662Z,10.68
2023-02-11T12:53:34.841Z,10.26
2023-02-11T12:58:45.373Z,10.44
2023-02-11T13:03:54.740Z,10.40
2023-02-11T13:09:02.976Z,10.75
2023-02-11T13:14:14.127Z,10.67
2023-02-11T13:19:27.570Z,10.87
2023-02-11T13:24:44.347Z,10.62
2023-02-11T13:30:23.659Z,10.63
2023-02-11T13:35:30.246Z,10.63
2023-02-11T13:40:37.906Z,10.63
2023-02-11T13:45:47.216Z,10.21
2023-02-11T13:50:54.427Z,10.16
2023-02-11T13:56:11.400Z,9.89
2023-02-11T14:01:40.825Z,9.27
2023-02-11T14:07:45.277Z,8.45
2023-02-11T14:13:07.008Z,8.50
2023-02-11T14:18:39.184Z,8.55
2023-02-11T14:23:43.809Z,8.04
2023-02-11T14:28:52.345Z,8.53
2023-02-11T14:34:13.347Z,8.43
2023-02-11T14:39:27.062Z,8.06
2023-02-11T14:44:35.648Z,8.09
2023-02-11T14:49:41.479Z,7.77
2023-02-11T14:54:49.265Z,7.62
2023-02-11T14:59:59.179Z,7.46
2023-02-11T15:05:19.128Z,7.20
2023-02-11T15:10:31.504Z,7.51
2023-02-11T15:15:41.668Z,7.53
2023-02-11T15:20:46.827Z,7.36
2023-02-11T15:25:56.631Z,6.68
2023-02-11T15:31:05.565Z,6.31
2023-02-11T15:36:12.755Z,5.54
2023-02-11T15:41:36.967Z,5.10
2023-02-11T15:46:47.523Z,4.13
2023-02-11T15:51:52.123Z,3.38
2023-02-11T15:57:03.621Z,3.06
2023-02-11T16:02:18.853Z,3.09
2023-02-11T16:07:42.092Z,2.88
2023-02-11T16:12:53.507Z,3.10
2023-02-11T16:17:59.341Z,2.24
2023-02-11T16:23:05.124Z,1.56
2023-02-11T16:28:17.450Z,1.17
2023-02-11T16:33:23.727Z,0.70
2023-02-11T16:38:27.772Z,0.70
2023-02-11T16:43:31.793Z,0.68
2023-02-11T16:48:39.020Z,0.52
2023-02-11T16:53:43.222Z,0.47
2023-02-11T16:58:47.360Z,0.16
2023-02-11T17:03:54.149Z,-0.11
2023-02-11T17:08:59.653Z,-0.44
2023-02-11T17:14:03.859Z,-0.37
2023-02-11T17:19:13.319Z,-0.45
2023-02-11T17:24:18.226Z,-0.57
2023-02-11T17:29:24.087Z,-0.86
2023-02-11T17:34:29.642Z,-0.96
2023-02-11T17:39:33.690Z,-0.89
2023-02-11T17:44:37.689Z,-0.98
2023-02-11T17:49:43.294Z,-1.14
2023-02-11T17:54:47.363Z,-1.25
2023-02-11T17:59:51.814Z,-1.47
2023-02-11T18:04:58.947Z,-1.43
2023-02-11T18:10:03.255Z,-1.63
2023-02-11T18:15:08.897Z,-1.80
2023-02-11T18:20:15.018Z,-1.42
2023-02-11T18:25:20.154Z,-1.29
2023-02-11T18:30:26.086Z,-1.40
2023-02-11T18:35:31.680Z,-1.75
2023-02-11T18:40:41.167Z,-1.96
2023-02-11T18:45:45.741Z,-2.07
2023-02-11T18:50:51.224Z,-2.24
2023-02-11T18:55:55.721Z,-2.12
2023-02-11T19:01:00.219Z,-2.11
2023-02-11T19:06:06.251Z,-2.18
2023-02-11T19:11:16.221Z,-2.24
2023-02-11T19:16:21.560Z,-2.08
2023-02-11T19:21:27.028Z,-1.93
2023-02-11T19:26:31.365Z,-2.01
2023-02-11T19:31:36.226Z,-2.42
2023-02-11T19:36:42.039Z,-2.81
2023-02-11T19:41:46.104Z,-2.81
2023-02-11T19:46:53.478Z,-3.17
2023-02-11T19:52:01.932Z,-2.86
2023-02-11T19:57:06.031Z,-2.69
2023-02-11T20:02:11.630Z,-2.52
2023-02-11T20:07:17.341Z,-2.65
2023-02-11T20:12:22.804Z,-2.77
2023-02-11T20:17:26.851Z,-2.77
2023-02-11T20:22:32.327Z,-2.80
2023-02-11T20:27:36.424Z,-2.81
2023-02-11T20:32:40.962Z,-3.00
2023-02-11T20:37:46.335Z,-3.06
2023-02-11T20:42:50.761Z,-3.00
2023-02-11T20:47:55.545Z,-3.12
2023-02-11T20:53:01.136Z,-2.78
2023-02-11T20:58:05.935Z,-2.77
2023-02-11T21:03:10.084Z,-2.80
2023-02-11T21:08:15.914Z,-2.91
2023-02-11T21:13:19.864Z,-3.35
2023-02-11T21:18:25.361Z,-3.45
2023-02-11T21:23:30.937Z,-3.47
2023-02-11T21:28:35.485Z,-3.33
2023-02-11T21:33:39.615Z,-3.49
2023-02-11T21:38:45.029Z,-3.30
2023-02-11T21:43:49.582Z,-3.24
2023-02-11T21:48:53.578Z,-3.09
2023-02-11T21:54:03.823Z,-3.02
2023-02-11T21:59:07.851Z,-3.18
2023-02-11T22:04:12.099Z,-3.31
2023-02-11T22:09:17.645Z,-3.49
2023-02-11T22:14:22.140Z,-3.28
2023-02-11T22:19:26.147Z,-3.63
2023-02-11T22:24:31.711Z,-3.65
2023-02-11T22:29:35.997Z,-3.64
2023-02-11T22:34:40.128Z,-3.48
2023-02-11T22:39:45.570Z,-3.31
2023-02-11T22:44:49.603Z,-3.14
2023-02-11T22:49:53.646Z,-3.22
2023-02-11T22:55:00.532Z,-3.12
2023-02-11T23:00:09.855Z,-2.97
2023-02-11T23:05:14.277Z,-2.91
2023-02-11T23:10:20.186Z,-2.90
2023-02-11T23:15:24.323Z,-3.00
2023-02-11T23:20:28.474Z,-2.87
2023-02-11T23:25:35.026Z,-3.01
2023-02-11T23:30:39.668Z,-2.89
2023-02-11T23:35:43.761Z,-2.96
2023-02-11T23:40:51.699Z,-2.94
2023-02-11T23:45:56.036Z,-3.09
2023-02-11T23:51:00.162Z,-3.26
2023-02-11T23:56:11.757Z,-3.24
